Corazon Del Mar — EA3287 — position and weather

sailwx.info

Track history (hours):
 
Tides and Currents Weather Stations Pressure Air Temp Water Temp Dewpoint Dewpoint Depression Visibility Wind Speed Wind Dir Waves Ship Positions

Corazon Del Mar

Last reported at 2017-Dec-04 08:55 UTC. Time now 2017-Dec-11 15:00 UTC.
Position N 37°24' W 001°35'.

Length 21 m.

Type: Fishing. MMSI: 224107670.

Date/timePositionNaut miles runAvg speedWind from/ knotsBaromVisibWave heightAir tempDewpointWater temp
2017-Dec-04 08:55N 37°24' W 001°35'30 6.1
2017-Dec-04 03:58N 37°31' W 000°58'4 8.6
2017-Dec-04 03:26N 37°31' W 000°52'2 5.0
2017-Dec-04 02:59N 37°33' W 000°51'0 0.1
2017-Dec-04 02:14N 37°33' W 000°51'1 2.8
2017-Dec-04 01:59N 37°33' W 000°52'34 5.1
2017-Dec-03 19:24N 37°23' W 001°33'2 3.8
2017-Dec-03 19:00N 37°24' W 001°35'  
2017-Nov-29 07:30N 37°24' W 001°35'0 0.0
2017-Nov-28 22:41N 37°24' W 001°34'0 0.0
2017-Nov-28 11:12N 37°24' W 001°35'0 0.2
2017-Nov-28 11:00N 37°24' W 001°35'0 0.0
2017-Nov-28 10:30N 37°24' W 001°35'35 8.0
2017-Nov-28 06:13N 37°31' W 000°52'3 8.2
2017-Nov-28 05:53N 37°32' W 000°49'3 8.3
2017-Nov-28 05:30N 37°33' W 000°45'8 7.7
2017-Nov-28 04:30N 37°38' W 000°38'1 1.9
2017-Nov-28 04:00N 37°39' W 000°37'0 0.4
2017-Nov-28 03:30N 37°39' W 000°38'0 0.2
2017-Nov-28 03:00N 37°39' W 000°37'2 3.4
2017-Nov-28 02:30N 37°40' W 000°37'1 2.4
2017-Nov-28 02:00N 37°42' W 000°36'0 0.2
2017-Nov-28 01:30N 37°41' W 000°36'2 3.8
2017-Nov-28 01:00N 37°43' W 000°35'4 7.9
2017-Nov-28 00:30N 37°47' W 000°34'3 5.8
2017-Nov-27 23:56N 37°50' W 000°34'0 0.4
2017-Nov-27 23:26N 37°50' W 000°35'0 0.4
2017-Nov-27 22:55N 37°50' W 000°34'0 0.8
2017-Nov-27 22:28N 37°50' W 000°34'7 7.5
2017-Nov-27 21:35N 37°57' W 000°35'1 7.7
2017-Nov-27 21:24N 37°58' W 000°35'1 1.7
2017-Nov-27 20:59N 37°59' W 000°35'0 0.4
2017-Nov-27 20:07N 37°59' W 000°34'1 5.3
2017-Nov-27 20:00N 37°60' W 000°34'4 6.8
2017-Nov-27 19:22N 37°58' W 000°39'2 0.1
2017-Nov-27 06:55N 37°58' W 000°41'4 9.8
2017-Nov-27 06:30N 37°55' W 000°38'510.5
2017-Nov-27 06:00N 37°50' W 000°34'510.5
2017-Nov-27 05:30N 37°45' W 000°35'1 2.2
2017-Nov-27 05:00N 37°44' W 000°35'3 5.1
2017-Nov-27 04:30N 37°46' W 000°33'3 4.9
2017-Nov-27 03:57N 37°49' W 000°33'4 8.3
2017-Nov-27 03:30N 37°52' W 000°34'4 8.2
2017-Nov-27 03:00N 37°56' W 000°38'  
Track history (hours):
 
Tides and Currents Weather Stations Pressure Air Temp Water Temp Dewpoint Dewpoint Depression Visibility Wind Speed Wind Dir Waves Ship Positions

Corazon Del Mar

Last reported at 2017-Dec-04 08:55 UTC. Time now 2017-Dec-11 15:00 UTC.
Position N 37°24' W 001°35'.

Length 21 m.

Type: Fishing. MMSI: 224107670.

Date/timePositionNaut miles runAvg speedWind from/ knotsBaromVisibWave heightAir tempDewpointWater temp
2017-Dec-04 08:55N 37°24' W 001°35'30 6.1
2017-Dec-04 03:58N 37°31' W 000°58'4 8.6
2017-Dec-04 03:26N 37°31' W 000°52'2 5.0
2017-Dec-04 02:59N 37°33' W 000°51'0 0.1
2017-Dec-04 02:14N 37°33' W 000°51'1 2.8
2017-Dec-04 01:59N 37°33' W 000°52'34 5.1
2017-Dec-03 19:24N 37°23' W 001°33'2 3.8
2017-Dec-03 19:00N 37°24' W 001°35'  
2017-Nov-29 07:30N 37°24' W 001°35'0 0.0
2017-Nov-28 22:41N 37°24' W 001°34'0 0.0
2017-Nov-28 11:12N 37°24' W 001°35'0 0.2
2017-Nov-28 11:00N 37°24' W 001°35'0 0.0
2017-Nov-28 10:30N 37°24' W 001°35'35 8.0
2017-Nov-28 06:13N 37°31' W 000°52'3 8.2
2017-Nov-28 05:53N 37°32' W 000°49'3 8.3
2017-Nov-28 05:30N 37°33' W 000°45'8 7.7
2017-Nov-28 04:30N 37°38' W 000°38'1 1.9
2017-Nov-28 04:00N 37°39' W 000°37'0 0.4
2017-Nov-28 03:30N 37°39' W 000°38'0 0.2
2017-Nov-28 03:00N 37°39' W 000°37'2 3.4
2017-Nov-28 02:30N 37°40' W 000°37'1 2.4
2017-Nov-28 02:00N 37°42' W 000°36'0 0.2
2017-Nov-28 01:30N 37°41' W 000°36'2 3.8
2017-Nov-28 01:00N 37°43' W 000°35'4 7.9
2017-Nov-28 00:30N 37°47' W 000°34'3 5.8
2017-Nov-27 23:56N 37°50' W 000°34'0 0.4
2017-Nov-27 23:26N 37°50' W 000°35'0 0.4
2017-Nov-27 22:55N 37°50' W 000°34'0 0.8
2017-Nov-27 22:28N 37°50' W 000°34'7 7.5
2017-Nov-27 21:35N 37°57' W 000°35'1 7.7
2017-Nov-27 21:24N 37°58' W 000°35'1 1.7
2017-Nov-27 20:59N 37°59' W 000°35'0 0.4
2017-Nov-27 20:07N 37°59' W 000°34'1 5.3
2017-Nov-27 20:00N 37°60' W 000°34'4 6.8
2017-Nov-27 19:22N 37°58' W 000°39'2 0.1
2017-Nov-27 06:55N 37°58' W 000°41'4 9.8
2017-Nov-27 06:30N 37°55' W 000°38'510.5
2017-Nov-27 06:00N 37°50' W 000°34'510.5
2017-Nov-27 05:30N 37°45' W 000°35'1 2.2
2017-Nov-27 05:00N 37°44' W 000°35'3 5.1
2017-Nov-27 04:30N 37°46' W 000°33'3 4.9
2017-Nov-27 03:57N 37°49' W 000°33'4 8.3
2017-Nov-27 03:30N 37°52' W 000°34'4 8.2
2017-Nov-27 03:00N 37°56' W 000°38'  

Dump ship's entire track history